sensor_id;sensor_type;location;lat;lon;timestamp;pressure;altitude;pressure_sealevel;temperature;humidity
11936;BME280;6027;48.576;9.180;2022-12-26T00:01:49;96905.59;;;8.76;100.00
11936;BME280;6027;48.576;9.180;2022-12-26T00:04:16;96895.34;;;8.73;100.00
11936;BME280;6027;48.576;9.180;2022-12-26T00:06:41;96905.41;;;8.78;100.00
11936;BME280;6027;48.576;9.180;2022-12-26T00:09:07;96904.78;;;8.68;100.00
11936;BME280;6027;48.576;9.180;2022-12-26T00:11:33;96900.03;;;8.55;100.00
11936;BME280;6027;48.576;9.180;2022-12-26T00:14:05;96899.84;;;8.64;100.00
11936;BME280;6027;48.576;9.180;2022-12-26T00:16:31;96896.72;;;8.61;100.00
11936;BME280;6027;48.576;9.180;2022-12-26T00:18:56;96899.72;;;8.50;100.00
11936;BME280;6027;48.576;9.180;2022-12-26T00:21:22;96895.13;;;8.44;100.00
11936;BME280;6027;48.576;9.180;2022-12-26T00:23:51;96900.56;;;8.42;100.00
11936;BME280;6027;48.576;9.180;2022-12-26T00:26:19;96893.47;;;8.35;100.00
11936;BME280;6027;48.576;9.180;2022-12-26T00:28:45;96890.50;;;8.38;100.00
11936;BME280;6027;48.576;9.180;2022-12-26T00:31:20;96891.84;;;8.34;100.00
11936;BME280;6027;48.576;9.180;2022-12-26T00:33:47;96894.63;;;8.32;100.00
11936;BME280;6027;48.576;9.180;2022-12-26T00:36:16;96896.13;;;8.26;100.00
11936;BME280;6027;48.576;9.180;2022-12-26T00:38:42;96909.31;;;8.26;100.00
11936;BME280;6027;48.576;9.180;2022-12-26T00:41:08;96907.31;;;8.20;100.00
11936;BME280;6027;48.576;9.180;2022-12-26T00:43:34;96906.00;;;8.08;100.00
11936;BME280;6027;48.576;9.180;2022-12-26T00:46:00;96900.09;;;8.06;100.00
11936;BME280;6027;48.576;9.180;2022-12-26T00:48:26;96900.59;;;8.02;100.00
11936;BME280;6027;48.576;9.180;2022-12-26T00:50:51;96891.53;;;8.04;100.00
11936;BME280;6027;48.576;9.180;2022-12-26T00:53:17;96892.03;;;8.08;100.00
11936;BME280;6027;48.576;9.180;2022-12-26T00:55:43;96888.72;;;8.06;100.00
11936;BME280;6027;48.576;9.180;2022-12-26T00:58:08;96878.66;;;8.01;100.00
11936;BME280;6027;48.576;9.180;2022-12-26T01:00:34;96897.78;;;8.03;100.00
11936;BME280;6027;48.576;9.180;2022-12-26T01:03:00;96889.72;;;7.88;100.00
11936;BME280;6027;48.576;9.180;2022-12-26T01:05:25;96884.91;;;7.76;100.00
11936;BME280;6027;48.576;9.180;2022-12-26T01:07:51;96885.09;;;7.66;100.00
11936;BME280;6027;48.576;9.180;2022-12-26T01:10:16;96882.47;;;7.66;100.00
11936;BME280;6027;48.576;9.180;2022-12-26T01:12:42;96889.22;;;7.69;100.00
11936;BME280;6027;48.576;9.180;2022-12-26T01:15:08;96894.97;;;7.72;100.00
11936;BME280;6027;48.576;9.180;2022-12-26T01:17:33;96893.66;;;7.68;100.00
11936;BME280;6027;48.576;9.180;2022-12-26T01:19:59;96902.03;;;7.72;100.00
11936;BME280;6027;48.576;9.180;2022-12-26T01:22:26;96901.88;;;7.65;100.00
11936;BME280;6027;48.576;9.180;2022-12-26T01:24:56;96897.09;;;7.60;100.00
11936;BME280;6027;48.576;9.180;2022-12-26T01:27:23;96899.75;;;7.69;100.00
11936;BME280;6027;48.576;9.180;2022-12-26T01:29:49;96904.69;;;7.72;100.00
11936;BME280;6027;48.576;9.180;2022-12-26T01:32:15;96909.78;;;7.73;100.00
11936;BME280;6027;48.576;9.180;2022-12-26T01:34:41;96901.72;;;7.75;100.00
11936;BME280;6027;48.576;9.180;2022-12-26T01:37:06;96902.88;;;7.80;100.00
11936;BME280;6027;48.576;9.180;2022-12-26T01:39:31;96898.41;;;7.73;100.00
11936;BME280;6027;48.576;9.180;2022-12-26T01:41:57;96913.91;;;7.68;100.00
11936;BME280;6027;48.576;9.180;2022-12-26T01:50:00;96902.03;;;7.72;100.00
11936;BME280;6027;48.576;9.180;2022-12-26T01:52:35;96910.63;;;7.74;100.00
11936;BME280;6027;48.576;9.180;2022-12-26T01:55:03;96912.59;;;7.72;100.00
11936;BME280;6027;48.576;9.180;2022-12-26T01:57:39;96918.53;;;7.66;100.00
11936;BME280;6027;48.576;9.180;2022-12-26T02:00:26;96909.13;;;7.71;100.00
11936;BME280;6027;48.576;9.180;2022-12-26T02:02:52;96917.03;;;7.63;100.00
11936;BME280;6027;48.576;9.180;2022-12-26T02:05:37;96911.25;;;7.59;100.00
11936;BME280;6027;48.576;9.180;2022-12-26T02:08:07;96910.59;;;7.49;100.00
11936;BME280;6027;48.576;9.180;2022-12-26T02:10:59;96904.34;;;7.58;100.00
11936;BME280;6027;48.576;9.180;2022-12-26T02:13:23;96896.09;;;7.45;100.00
11936;BME280;6027;48.576;9.180;2022-12-26T02:15:49;96897.59;;;7.48;100.00
11936;BME280;6027;48.576;9.180;2022-12-26T02:18:15;96901.72;;;7.50;100.00
11936;BME280;6027;48.576;9.180;2022-12-26T02:21:01;96892.31;;;7.48;100.00
11936;BME280;6027;48.576;9.180;2022-12-26T02:34:06;96893.13;;;7.40;100.00
11936;BME280;6027;48.576;9.180;2022-12-26T02:39:48;96914.69;;;7.44;100.00
11936;BME280;6027;48.576;9.180;2022-12-26T02:42:42;96909.91;;;7.39;100.00
11936;BME280;6027;48.576;9.180;2022-12-26T02:45:28;96915.53;;;7.44;100.00
11936;BME280;6027;48.576;9.180;2022-12-26T02:51:32;96914.81;;;7.34;100.00
11936;BME280;6027;48.576;9.180;2022-12-26T02:54:42;96911.88;;;7.37;100.00
11936;BME280;6027;48.576;9.180;2022-12-26T02:57:40;96916.75;;;7.16;100.00
11936;BME280;6027;48.576;9.180;2022-12-26T03:00:27;96903.41;;;7.09;100.00
11936;BME280;6027;48.576;9.180;2022-12-26T03:03:15;96916.63;;;7.25;100.00
11936;BME280;6027;48.576;9.180;2022-12-26T03:06:12;96910.34;;;7.18;100.00
11936;BME280;6027;48.576;9.180;2022-12-26T03:09:01;96910.66;;;7.15;100.00
11936;BME280;6027;48.576;9.180;2022-12-26T03:11:52;96900.31;;;7.22;100.00
11936;BME280;6027;48.576;9.180;2022-12-26T03:15:09;96902.63;;;7.33;100.00
11936;BME280;6027;48.576;9.180;2022-12-26T03:17:55;96902.00;;;7.31;100.00
11936;BME280;6027;48.576;9.180;2022-12-26T03:20:25;96903.63;;;7.32;100.00
11936;BME280;6027;48.576;9.180;2022-12-26T03:22:58;96895.56;;;7.34;100.00
11936;BME280;6027;48.576;9.180;2022-12-26T03:28:18;96890.78;;;7.21;100.00
11936;BME280;6027;48.576;9.180;2022-12-26T03:30:44;96884.19;;;7.33;100.00
11936;BME280;6027;48.576;9.180;2022-12-26T03:33:26;96880.63;;;7.42;100.00
11936;BME280;6027;48.576;9.180;2022-12-26T03:36:13;96882.44;;;7.50;100.00
11936;BME280;6027;48.576;9.180;2022-12-26T03:47:26;96879.47;;;7.53;100.00
11936;BME280;6027;48.576;9.180;2022-12-26T03:50:37;96885.72;;;7.52;100.00
11936;BME280;6027;48.576;9.180;2022-12-26T03:56:39;96891.50;;;7.63;100.00
11936;BME280;6027;48.576;9.180;2022-12-26T03:59:32;96888.22;;;7.61;100.00
11936;BME280;6027;48.576;9.180;2022-12-26T04:02:20;96888.38;;;7.60;100.00
11936;BME280;6027;48.576;9.180;2022-12-26T04:05:25;96899.25;;;7.73;100.00
11936;BME280;6027;48.576;9.180;2022-12-26T04:08:16;96898.78;;;7.70;100.00
11936;BME280;6027;48.576;9.180;2022-12-26T04:11:03;96904.69;;;7.80;100.00
11936;BME280;6027;48.576;9.180;2022-12-26T04:16:54;96897.78;;;7.95;100.00
11936;BME280;6027;48.576;9.180;2022-12-26T04:19:59;96902.22;;;8.03;100.00
11936;BME280;6027;48.576;9.180;2022-12-26T04:22:43;96899.56;;;8.11;100.00
11936;BME280;6027;48.576;9.180;2022-12-26T04:25:36;96905.69;;;8.19;100.00
11936;BME280;6027;48.576;9.180;2022-12-26T04:28:22;96905.50;;;8.21;100.00
11936;BME280;6027;48.576;9.180;2022-12-26T04:31:22;96906.31;;;8.29;100.00
11936;BME280;6027;48.576;9.180;2022-12-26T04:34:17;96905.84;;;8.34;100.00
11936;BME280;6027;48.576;9.180;2022-12-26T04:37:10;96916.41;;;8.42;100.00
11936;BME280;6027;48.576;9.180;2022-12-26T04:39:58;96918.00;;;8.51;100.00
11936;BME280;6027;48.576;9.180;2022-12-26T04:42:45;96924.59;;;8.55;100.00
11936;BME280;6027;48.576;9.180;2022-12-26T04:45:30;96919.00;;;8.58;100.00
11936;BME280;6027;48.576;9.180;2022-12-26T04:47:56;96914.88;;;8.64;100.00
11936;BME280;6027;48.576;9.180;2022-12-26T04:50:50;96905.13;;;8.64;100.00
11936;BME280;6027;48.576;9.180;2022-12-26T04:53:16;96907.91;;;8.71;100.00
11936;BME280;6027;48.576;9.180;2022-12-26T04:55:42;96897.69;;;8.68;100.00
11936;BME280;6027;48.576;9.180;2022-12-26T04:58:07;96910.88;;;8.68;100.00
11936;BME280;6027;48.576;9.180;2022-12-26T05:00:32;96914.81;;;8.72;100.00
11936;BME280;6027;48.576;9.180;2022-12-26T05:02:58;96907.91;;;8.71;100.00
11936;BME280;6027;48.576;9.180;2022-12-26T05:05:44;96917.13;;;8.83;100.00
11936;BME280;6027;48.576;9.180;2022-12-26T05:08:35;96915.44;;;8.90;100.00
11936;BME280;6027;48.576;9.180;2022-12-26T05:11:19;96905.19;;;8.95;100.00
11936;BME280;6027;48.576;9.180;2022-12-26T05:13:45;96911.78;;;8.99;100.00
11936;BME280;6027;48.576;9.180;2022-12-26T05:16:10;96909.78;;;9.02;100.00
11936;BME280;6027;48.576;9.180;2022-12-26T05:18:54;96897.91;;;8.97;100.00
11936;BME280;6027;48.576;9.180;2022-12-26T05:21:39;96896.88;;;9.07;100.00
11936;BME280;6027;48.576;9.180;2022-12-26T05:24:26;96888.59;;;9.10;100.00
11936;BME280;6027;48.576;9.180;2022-12-26T05:27:14;96877.53;;;9.14;100.00
11936;BME280;6027;48.576;9.180;2022-12-26T05:29:59;96881.16;;;9.13;100.00
11936;BME280;6027;48.576;9.180;2022-12-26T05:32:24;96889.06;;;9.21;100.00
11936;BME280;6027;48.576;9.180;2022-12-26T05:35:09;96880.16;;;9.22;100.00
11936;BME280;6027;48.576;9.180;2022-12-26T05:37:34;96891.56;;;9.15;100.00
11936;BME280;6027;48.576;9.180;2022-12-26T05:40:00;96894.22;;;9.07;100.00
11936;BME280;6027;48.576;9.180;2022-12-26T05:42:26;96889.59;;;9.09;100.00
11936;BME280;6027;48.576;9.180;2022-12-26T05:44:52;96891.41;;;9.16;100.00
11936;BME280;6027;48.576;9.180;2022-12-26T05:47:17;96889.88;;;9.22;100.00
11936;BME280;6027;48.576;9.180;2022-12-26T05:49:42;96886.88;;;9.25;100.00
11936;BME280;6027;48.576;9.180;2022-12-26T05:52:08;96897.28;;;9.26;100.00
11936;BME280;6027;48.576;9.180;2022-12-26T05:54:33;96893.16;;;9.24;100.00
11936;BME280;6027;48.576;9.180;2022-12-26T05:56:59;96901.06;;;9.24;100.00
11936;BME280;6027;48.576;9.180;2022-12-26T05:59:26;96901.97;;;9.16;100.00
11936;BME280;6027;48.576;9.180;2022-12-26T06:01:51;96911.69;;;9.16;100.00
11936;BME280;6027;48.576;9.180;2022-12-26T06:04:17;96908.25;;;9.15;100.00
11936;BME280;6027;48.576;9.180;2022-12-26T06:06:42;96916.66;;;9.19;100.00
11936;BME280;6027;48.576;9.180;2022-12-26T06:09:08;96911.38;;;9.19;100.00
11936;BME280;6027;48.576;9.180;2022-12-26T06:11:33;96912.47;;;9.24;100.00
11936;BME280;6027;48.576;9.180;2022-12-26T06:13:59;96903.44;;;9.19;100.00
11936;BME280;6027;48.576;9.180;2022-12-26T06:16:26;96903.25;;;9.20;100.00
11936;BME280;6027;48.576;9.180;2022-12-26T06:18:53;96906.25;;;9.17;100.00
11936;BME280;6027;48.576;9.180;2022-12-26T06:21:19;96901.69;;;9.03;100.00
11936;BME280;6027;48.576;9.180;2022-12-26T06:23:50;96901.34;;;9.06;100.00
11936;BME280;6027;48.576;9.180;2022-12-26T06:26:16;96899.22;;;9.02;100.00
11936;BME280;6027;48.576;9.180;2022-12-26T06:28:42;96907.81;;;8.95;100.00
11936;BME280;6027;48.576;9.180;2022-12-26T06:31:11;96903.38;;;8.88;100.00
11936;BME280;6027;48.576;9.180;2022-12-26T06:33:38;96908.81;;;8.94;100.00
11936;BME280;6027;48.576;9.180;2022-12-26T06:36:05;96915.75;;;8.95;100.00
11936;BME280;6027;48.576;9.180;2022-12-26T06:38:32;96916.56;;;8.96;100.00
11936;BME280;6027;48.576;9.180;2022-12-26T06:40:57;96909.16;;;8.91;100.00
11936;BME280;6027;48.576;9.180;2022-12-26T06:43:23;96918.72;;;8.92;100.00
11936;BME280;6027;48.576;9.180;2022-12-26T06:45:55;96913.50;;;8.84;100.00
11936;BME280;6027;48.576;9.180;2022-12-26T06:48:21;96914.78;;;8.88;100.00
11936;BME280;6027;48.576;9.180;2022-12-26T06:50:46;96905.19;;;8.95;100.00
11936;BME280;6027;48.576;9.180;2022-12-26T06:53:12;96919.56;;;8.93;100.00
11936;BME280;6027;48.576;9.180;2022-12-26T06:55:37;96898.94;;;8.88;100.00
11936;BME280;6027;48.576;9.180;2022-12-26T06:58:02;96911.13;;;8.89;100.00
11936;BME280;6027;48.576;9.180;2022-12-26T07:00:28;96897.59;;;8.92;100.00
11936;BME280;6027;48.576;9.180;2022-12-26T07:02:54;96909.13;;;8.99;100.00
11936;BME280;6027;48.576;9.180;2022-12-26T07:05:20;96907.66;;;8.97;100.00
11936;BME280;6027;48.576;9.180;2022-12-26T07:07:52;96900.56;;;8.97;100.00
11936;BME280;6027;48.576;9.180;2022-12-26T07:10:19;96905.53;;;8.92;100.00
11936;BME280;6027;48.576;9.180;2022-12-26T07:12:45;96903.47;;;9.11;100.00
11936;BME280;6027;48.576;9.180;2022-12-26T07:15:11;96910.25;;;9.05;100.00
11936;BME280;6027;48.576;9.180;2022-12-26T07:17:57;96905.25;;;9.18;100.00
11936;BME280;6027;48.576;9.180;2022-12-26T07:20:23;96914.44;;;9.30;100.00
11936;BME280;6027;48.576;9.180;2022-12-26T07:22:48;96903.09;;;9.22;100.00
11936;BME280;6027;48.576;9.180;2022-12-26T07:25:14;96896.09;;;9.29;100.00
11936;BME280;6027;48.576;9.180;2022-12-26T07:27:39;96892.81;;;9.27;100.00
11936;BME280;6027;48.576;9.180;2022-12-26T07:30:05;96901.72;;;9.26;100.00
11936;BME280;6027;48.576;9.180;2022-12-26T07:32:31;96910.31;;;9.28;100.00
11936;BME280;6027;48.576;9.180;2022-12-26T07:34:56;96907.31;;;9.31;100.00
11936;BME280;6027;48.576;9.180;2022-12-26T07:37:21;96906.19;;;9.25;100.00
11936;BME280;6027;48.576;9.180;2022-12-26T07:39:47;96902.22;;;9.29;100.00
11936;BME280;6027;48.576;9.180;2022-12-26T07:42:12;96908.97;;;9.32;100.00
11936;BME280;6027;48.576;9.180;2022-12-26T07:44:38;96913.44;;;9.31;100.00
11936;BME280;6027;48.576;9.180;2022-12-26T07:47:03;96916.06;;;9.31;100.00
11936;BME280;6027;48.576;9.180;2022-12-26T07:49:29;96902.09;;;9.23;100.00
11936;BME280;6027;48.576;9.180;2022-12-26T07:51:54;96907.50;;;9.29;100.00
11936;BME280;6027;48.576;9.180;2022-12-26T07:54:20;96924.50;;;9.27;100.00
11936;BME280;6027;48.576;9.180;2022-12-26T07:56:45;96930.94;;;9.32;100.00
11936;BME280;6027;48.576;9.180;2022-12-26T07:59:16;96927.81;;;9.29;100.00
11936;BME280;6027;48.576;9.180;2022-12-26T08:01:43;96928.16;;;9.26;100.00
11936;BME280;6027;48.576;9.180;2022-12-26T08:04:09;96928.81;;;9.28;100.00
11936;BME280;6027;48.576;9.180;2022-12-26T08:06:35;96934.00;;;9.13;100.00
11936;BME280;6027;48.576;9.180;2022-12-26T08:09:01;96932.97;;;9.22;100.00
11936;BME280;6027;48.576;9.180;2022-12-26T08:11:27;96929.84;;;9.19;100.00
11936;BME280;6027;48.576;9.180;2022-12-26T08:13:56;96931.78;;;9.25;100.00
11936;BME280;6027;48.576;9.180;2022-12-26T08:16:21;96939.34;;;9.36;100.00
11936;BME280;6027;48.576;9.180;2022-12-26T08:18:47;96931.09;;;9.31;100.00
11936;BME280;6027;48.576;9.180;2022-12-26T08:21:13;96930.44;;;9.29;100.00
11936;BME280;6027;48.576;9.180;2022-12-26T08:23:39;96931.94;;;9.31;100.00
11936;BME280;6027;48.576;9.180;2022-12-26T08:26:07;96937.22;;;9.31;100.00
11936;BME280;6027;48.576;9.180;2022-12-26T08:28:33;96938.84;;;9.32;100.00
11936;BME280;6027;48.576;9.180;2022-12-26T08:30:58;96930.78;;;9.26;100.00
11936;BME280;6027;48.576;9.180;2022-12-26T08:33:24;96935.06;;;9.27;100.00
11936;BME280;6027;48.576;9.180;2022-12-26T08:35:49;96926.38;;;9.18;100.00
11936;BME280;6027;48.576;9.180;2022-12-26T08:38:15;96932.66;;;9.17;100.00
11936;BME280;6027;48.576;9.180;2022-12-26T08:40:40;96933.81;;;9.15;100.00
11936;BME280;6027;48.576;9.180;2022-12-26T08:43:06;96952.22;;;9.00;100.00
11936;BME280;6027;48.576;9.180;2022-12-26T08:45:31;96958.97;;;9.03;100.00
11936;BME280;6027;48.576;9.180;2022-12-26T08:47:57;96970.03;;;8.98;100.00
11936;BME280;6027;48.576;9.180;2022-12-26T08:50:27;96982.25;;;8.91;100.00
11936;BME280;6027;48.576;9.180;2022-12-26T08:52:52;96997.28;;;8.90;100.00
11936;BME280;6027;48.576;9.180;2022-12-26T08:55:18;96990.50;;;8.88;100.00
11936;BME280;6027;48.576;9.180;2022-12-26T08:57:43;96995.97;;;8.86;100.00
11936;BME280;6027;48.576;9.180;2022-12-26T09:00:09;97004.88;;;8.85;100.00
11936;BME280;6027;48.576;9.180;2022-12-26T09:02:35;97014.47;;;8.78;100.00
11936;BME280;6027;48.576;9.180;2022-12-26T09:05:00;97011.50;;;8.73;100.00
11936;BME280;6027;48.576;9.180;2022-12-26T09:07:26;97019.44;;;8.65;100.00
11936;BME280;6027;48.576;9.180;2022-12-26T09:09:51;97005.56;;;8.79;100.00
11936;BME280;6027;48.576;9.180;2022-12-26T09:12:16;97023.72;;;8.74;100.00
11936;BME280;6027;48.576;9.180;2022-12-26T09:14:42;97015.97;;;8.73;100.00
11936;BME280;6027;48.576;9.180;2022-12-26T09:17:09;97006.06;;;8.75;100.00
11936;BME280;6027;48.576;9.180;2022-12-26T09:19:35;97006.75;;;8.60;100.00
11936;BME280;6027;48.576;9.180;2022-12-26T09:22:01;97011.53;;;8.57;100.00
11936;BME280;6027;48.576;9.180;2022-12-26T09:24:45;97013.34;;;8.48;100.00
11936;BME280;6027;48.576;9.180;2022-12-26T09:27:10;97018.78;;;8.39;100.00
11936;BME280;6027;48.576;9.180;2022-12-26T09:29:36;97028.69;;;8.45;100.00
11936;BME280;6027;48.576;9.180;2022-12-26T09:32:10;97037.25;;;8.39;100.00
11936;BME280;6027;48.576;9.180;2022-12-26T09:34:37;97039.06;;;8.38;100.00
11936;BME280;6027;48.576;9.180;2022-12-26T09:37:02;97043.69;;;8.44;100.00
11936;BME280;6027;48.576;9.180;2022-12-26T09:39:27;97046.50;;;8.43;100.00
11936;BME280;6027;48.576;9.180;2022-12-26T09:50:15;97064.31;;;8.65;100.00
11936;BME280;6027;48.576;9.180;2022-12-26T09:55:47;97063.47;;;8.73;100.00
11936;BME280;6027;48.576;9.180;2022-12-26T09:58:29;97065.47;;;8.79;100.00
11936;BME280;6027;48.576;9.180;2022-12-26T10:01:17;97067.59;;;8.83;100.00
11936;BME280;6027;48.576;9.180;2022-12-26T10:03:50;97066.25;;;8.87;100.00
11936;BME280;6027;48.576;9.180;2022-12-26T10:25:46;97083.22;;;9.09;100.00
11936;BME280;6027;48.576;9.180;2022-12-26T10:28:23;97093.63;;;9.11;100.00
11936;BME280;6027;48.576;9.180;2022-12-26T10:30:53;97110.97;;;9.13;100.00
11936;BME280;6027;48.576;9.180;2022-12-26T10:33:39;97117.56;;;9.09;100.00
11936;BME280;6027;48.576;9.180;2022-12-26T10:36:14;97119.22;;;9.18;100.00
11936;BME280;6027;48.576;9.180;2022-12-26T10:38:43;97136.38;;;9.30;100.00
11936;BME280;6027;48.576;9.180;2022-12-26T10:41:30;97135.22;;;9.33;100.00
11936;BME280;6027;48.576;9.180;2022-12-26T10:43:56;97138.22;;;9.22;100.00
11936;BME280;6027;48.576;9.180;2022-12-26T10:49:09;97135.25;;;9.17;100.00
11936;BME280;6027;48.576;9.180;2022-12-26T10:51:36;97141.00;;;9.20;100.00
11936;BME280;6027;48.576;9.180;2022-12-26T10:54:02;97142.16;;;9.26;100.00
11936;BME280;6027;48.576;9.180;2022-12-26T10:56:34;97153.69;;;9.25;100.00
11936;BME280;6027;48.576;9.180;2022-12-26T10:59:02;97157.00;;;9.27;100.00
11936;BME280;6027;48.576;9.180;2022-12-26T11:01:33;97159.66;;;9.27;100.00
11936;BME280;6027;48.576;9.180;2022-12-26T11:04:22;97164.28;;;9.25;100.00
11936;BME280;6027;48.576;9.180;2022-12-26T11:06:51;97153.53;;;9.26;100.00
11936;BME280;6027;48.576;9.180;2022-12-26T11:09:39;97151.88;;;9.25;100.00
11936;BME280;6027;48.576;9.180;2022-12-26T11:12:41;97143.31;;;9.31;100.00
11936;BME280;6027;48.576;9.180;2022-12-26T11:15:40;97142.97;;;9.26;100.00
11936;BME280;6027;48.576;9.180;2022-12-26T11:18:37;97135.03;;;9.26;100.00
11936;BME280;6027;48.576;9.180;2022-12-26T11:21:31;97114.94;;;9.17;100.00
11936;BME280;6027;48.576;9.180;2022-12-26T11:26:32;97106.47;;;9.38;100.00
11936;BME280;6027;48.576;9.180;2022-12-26T11:29:15;97100.31;;;9.46;100.00
11936;BME280;6027;48.576;9.180;2022-12-26T11:31:50;97098.66;;;9.45;100.00
11936;BME280;6027;48.576;9.180;2022-12-26T11:34:32;97085.00;;;9.33;100.00
11936;BME280;6027;48.576;9.180;2022-12-26T11:37:00;97102.34;;;9.35;100.00
11936;BME280;6027;48.576;9.180;2022-12-26T11:39:28;97114.91;;;9.33;100.00
11936;BME280;6027;48.576;9.180;2022-12-26T11:41:56;97113.25;;;9.41;100.00
11936;BME280;6027;48.576;9.180;2022-12-26T11:44:29;97125.97;;;9.37;100.00
11936;BME280;6027;48.576;9.180;2022-12-26T11:47:16;97122.50;;;9.28;100.00
11936;BME280;6027;48.576;9.180;2022-12-26T11:49:53;97119.84;;;9.28;100.00
11936;BME280;6027;48.576;9.180;2022-12-26T11:55:23;97108.78;;;9.33;100.00
11936;BME280;6027;48.576;9.180;2022-12-26T12:06:33;97082.69;;;9.30;100.00
11936;BME280;6027;48.576;9.180;2022-12-26T12:26:17;97112.94;;;9.19;100.00
11936;BME280;6027;48.576;9.180;2022-12-26T12:31:39;97082.41;;;9.09;100.00
11936;BME280;6027;48.576;9.180;2022-12-26T12:34:25;97069.38;;;9.07;100.00
11936;BME280;6027;48.576;9.180;2022-12-26T12:42:28;97063.28;;;8.98;100.00
11936;BME280;6027;48.576;9.180;2022-12-26T12:48:09;97054.53;;;8.98;100.00
11936;BME280;6027;48.576;9.180;2022-12-26T12:55:47;97079.13;;;8.98;100.00
11936;BME280;6027;48.576;9.180;2022-12-26T12:58:49;97073.84;;;8.98;100.00
11936;BME280;6027;48.576;9.180;2022-12-26T13:01:25;97087.19;;;9.05;100.00
11936;BME280;6027;48.576;9.180;2022-12-26T13:12:36;97084.25;;;9.00;100.00
11936;BME280;6027;48.576;9.180;2022-12-26T13:23:15;97091.66;;;9.05;100.00
11936;BME280;6027;48.576;9.180;2022-12-26T13:26:14;97085.53;;;9.12;100.00
11936;BME280;6027;48.576;9.180;2022-12-26T13:31:15;97047.56;;;9.05;100.00
11936;BME280;6027;48.576;9.180;2022-12-26T13:33:42;97048.41;;;9.06;100.00
11936;BME280;6027;48.576;9.180;2022-12-26T13:36:08;97020.53;;;9.03;100.00
11936;BME280;6027;48.576;9.180;2022-12-26T13:41:20;97036.03;;;9.06;100.00
11936;BME280;6027;48.576;9.180;2022-12-26T13:49:38;97076.28;;;9.16;100.00
11936;BME280;6027;48.576;9.180;2022-12-26T13:57:42;97046.59;;;9.06;100.00
11936;BME280;6027;48.576;9.180;2022-12-26T14:05:44;97049.72;;;9.18;100.00
11936;BME280;6027;48.576;9.180;2022-12-26T14:22:42;97029.75;;;9.15;100.00
11936;BME280;6027;48.576;9.180;2022-12-26T14:28:46;97038.00;;;9.12;100.00
11936;BME280;6027;48.576;9.180;2022-12-26T14:33:51;97034.19;;;9.15;100.00
11936;BME280;6027;48.576;9.180;2022-12-26T14:36:40;97024.91;;;9.27;100.00
11936;BME280;6027;48.576;9.180;2022-12-26T14:39:33;97025.44;;;9.14;100.00
11936;BME280;6027;48.576;9.180;2022-12-26T14:42:23;97037.66;;;9.15;100.00
11936;BME280;6027;48.576;9.180;2022-12-26T14:47:55;97009.16;;;8.94;100.00
11936;BME280;6027;48.576;9.180;2022-12-26T14:50:46;97027.75;;;9.09;100.00
11936;BME280;6027;48.576;9.180;2022-12-26T15:00:56;97022.31;;;9.11;100.00
11936;BME280;6027;48.576;9.180;2022-12-26T15:04:13;97015.72;;;9.07;100.00
11936;BME280;6027;48.576;9.180;2022-12-26T15:07:18;97028.09;;;9.06;100.00
11936;BME280;6027;48.576;9.180;2022-12-26T15:10:16;97013.06;;;9.07;100.00
11936;BME280;6027;48.576;9.180;2022-12-26T15:15:59;97006.97;;;9.06;100.00
11936;BME280;6027;48.576;9.180;2022-12-26T15:24:10;97021.22;;;8.97;100.00
11936;BME280;6027;48.576;9.180;2022-12-26T15:29:45;97022.03;;;8.97;100.00
11936;BME280;6027;48.576;9.180;2022-12-26T15:35:15;97009.00;;;8.96;100.00
11936;BME280;6027;48.576;9.180;2022-12-26T15:38:01;97012.94;;;9.00;100.00
11936;BME280;6027;48.576;9.180;2022-12-26T15:40:33;97032.25;;;8.92;100.00
11936;BME280;6027;48.576;9.180;2022-12-26T15:43:23;97026.66;;;8.87;100.00
11936;BME280;6027;48.576;9.180;2022-12-26T15:48:39;97019.56;;;8.88;100.00
11936;BME280;6027;48.576;9.180;2022-12-26T15:51:13;97024.38;;;8.84;100.00
11936;BME280;6027;48.576;9.180;2022-12-26T16:01:39;97029.16;;;8.81;100.00
11936;BME280;6027;48.576;9.180;2022-12-26T16:04:11;97027.19;;;8.83;100.00
11936;BME280;6027;48.576;9.180;2022-12-26T16:11:57;97031.63;;;8.74;100.00
11936;BME280;6027;48.576;9.180;2022-12-26T16:14:32;97025.53;;;8.74;100.00
11936;BME280;6027;48.576;9.180;2022-12-26T16:19:40;97050.75;;;8.68;100.00
11936;BME280;6027;48.576;9.180;2022-12-26T16:30:19;97016.78;;;8.49;100.00
11936;BME280;6027;48.576;9.180;2022-12-26T16:33:29;97026.69;;;8.55;100.00
11936;BME280;6027;48.576;9.180;2022-12-26T16:41:33;97045.50;;;8.52;100.00
11936;BME280;6027;48.576;9.180;2022-12-26T16:44:27;97040.53;;;8.49;100.00
11936;BME280;6027;48.576;9.180;2022-12-26T16:55:56;97041.38;;;8.33;100.00
11936;BME280;6027;48.576;9.180;2022-12-26T17:01:18;97058.03;;;8.50;100.00
11936;BME280;6027;48.576;9.180;2022-12-26T17:06:37;97055.06;;;8.45;100.00
11936;BME280;6027;48.576;9.180;2022-12-26T17:09:13;97046.66;;;8.49;100.00
11936;BME280;6027;48.576;9.180;2022-12-26T17:14:44;97039.56;;;8.34;100.00
11936;BME280;6027;48.576;9.180;2022-12-26T17:19:50;97049.13;;;8.43;100.00
11936;BME280;6027;48.576;9.180;2022-12-26T17:24:46;97057.56;;;8.46;100.00
11936;BME280;6027;48.576;9.180;2022-12-26T17:27:17;97058.19;;;8.48;100.00
11936;BME280;6027;48.576;9.180;2022-12-26T17:29:50;97050.63;;;8.53;100.00
11936;BME280;6027;48.576;9.180;2022-12-26T17:34:51;97067.44;;;8.52;100.00
11936;BME280;6027;48.576;9.180;2022-12-26T17:37:21;97071.22;;;8.50;100.00
11936;BME280;6027;48.576;9.180;2022-12-26T17:42:42;97067.59;;;8.59;100.00
11936;BME280;6027;48.576;9.180;2022-12-26T17:45:14;97072.88;;;8.59;100.00
11936;BME280;6027;48.576;9.180;2022-12-26T17:47:39;97069.75;;;8.63;100.00
11936;BME280;6027;48.576;9.180;2022-12-26T17:50:05;97075.84;;;8.56;100.00
11936;BME280;6027;48.576;9.180;2022-12-26T17:52:31;97068.25;;;8.69;100.00
11936;BME280;6027;48.576;9.180;2022-12-26T17:54:57;97063.66;;;8.63;100.00
11936;BME280;6027;48.576;9.180;2022-12-26T17:57:25;97075.50;;;8.67;100.00
11936;BME280;6027;48.576;9.180;2022-12-26T17:59:51;97078.16;;;8.67;100.00
11936;BME280;6027;48.576;9.180;2022-12-26T18:02:18;97083.44;;;8.67;100.00
11936;BME280;6027;48.576;9.180;2022-12-26T18:04:44;97093.50;;;8.72;100.00
11936;BME280;6027;48.576;9.180;2022-12-26T18:07:30;97096.63;;;8.67;100.00
11936;BME280;6027;48.576;9.180;2022-12-26T18:09:59;97097.13;;;8.71;100.00